Terminal Aerodrome Forecast
Issued by NWS

Home | Current Version | Previous Version | Text Only | Print | Product List | Glossary On
Versions: 1 2 3 4 5 6 7 8 9 10 11 12 13 14 15 16 17 18 19 20 21
076
FTUS44 KMAF 041723
TAFHOB
TAF
KHOB 041723Z 0418/0518 36011KT P6SM OVC010
      TEMPO 0418/0422 3SM BR OVC003
     FM042200 01005KT P6SM BKN070
      TEMPO 0511/0515 5SM BR BKN035=

USA.gov is the U.S. government's official web portal to all federal, state and local government web resources and services.